createdAt,value
2018-10-16T00:02:27.806Z,13.40
2018-10-16T00:04:55.832Z,13.40
2018-10-16T00:07:23.866Z,13.40
2018-10-16T00:09:51.993Z,13.40
2018-10-16T00:12:20.003Z,13.30
2018-10-16T00:14:48.033Z,13.40
2018-10-16T00:17:16.460Z,13.30
2018-10-16T00:19:44.553Z,13.30
2018-10-16T00:22:12.574Z,13.30
2018-10-16T00:24:40.863Z,13.30
2018-10-16T00:27:09.189Z,13.30
2018-10-16T00:29:37.339Z,13.20
2018-10-16T00:32:05.720Z,13.20
2018-10-16T00:34:33.862Z,13.10
2018-10-16T00:37:01.986Z,13.10
2018-10-16T00:39:30.426Z,13.10
2018-10-16T00:41:58.767Z,13.10
2018-10-16T00:44:26.867Z,13.10
2018-10-16T00:46:55.099Z,13.00
2018-10-16T00:49:23.122Z,13.00
2018-10-16T00:51:51.151Z,13.00
2018-10-16T00:54:19.207Z,13.00
2018-10-16T00:56:47.236Z,13.00
2018-10-16T00:59:15.260Z,12.90
2018-10-16T01:01:43.318Z,12.90
2018-10-16T01:04:11.368Z,12.90
2018-10-16T01:06:39.379Z,12.80
2018-10-16T01:09:10.597Z,12.80
2018-10-16T01:11:39.132Z,12.80
2018-10-16T01:14:07.394Z,12.70
2018-10-16T01:16:35.479Z,12.70
2018-10-16T01:19:03.538Z,12.70
2018-10-16T01:21:31.564Z,12.60
2018-10-16T01:23:59.712Z,12.60
2018-10-16T01:26:27.804Z,12.50
2018-10-16T01:28:56.679Z,12.50
2018-10-16T01:31:25.143Z,12.40
2018-10-16T01:33:53.207Z,12.40
2018-10-16T01:36:21.313Z,12.40
2018-10-16T01:38:49.367Z,12.40
2018-10-16T01:41:17.397Z,12.40
2018-10-16T01:43:45.450Z,12.40
2018-10-16T01:46:13.500Z,12.40
2018-10-16T01:48:41.514Z,12.30
2018-10-16T01:51:09.540Z,12.40
2018-10-16T01:53:37.762Z,12.40
2018-10-16T01:56:05.822Z,12.40
2018-10-16T01:58:33.855Z,12.40
2018-10-16T02:01:02.022Z,12.30
2018-10-16T02:03:30.063Z,12.30
2018-10-16T02:05:58.145Z,12.20
2018-10-16T02:08:26.388Z,12.20
2018-10-16T02:10:54.564Z,12.10
2018-10-16T02:13:22.686Z,12.10
2018-10-16T02:15:51.038Z,12.10
2018-10-16T02:18:19.105Z,12.10
2018-10-16T02:20:47.138Z,12.00
2018-10-16T02:23:15.575Z,12.00
2018-10-16T02:25:43.623Z,12.00
2018-10-16T02:28:11.826Z,12.00
2018-10-16T02:30:40.395Z,12.10
2018-10-16T02:33:08.426Z,12.00
2018-10-16T02:35:36.453Z,12.10
2018-10-16T02:38:04.958Z,12.10
2018-10-16T02:40:33.013Z,12.10
2018-10-16T02:43:01.071Z,12.10
2018-10-16T02:45:29.183Z,12.10
2018-10-16T02:47:57.241Z,12.00
2018-10-16T02:50:25.271Z,12.00
2018-10-16T02:52:53.303Z,12.00
2018-10-16T02:55:21.357Z,11.90
2018-10-16T02:57:49.375Z,11.90
2018-10-16T03:00:18.565Z,11.90
2018-10-16T03:02:46.631Z,11.90
2018-10-16T03:05:14.641Z,11.90
2018-10-16T03:07:42.707Z,11.90
2018-10-16T03:10:10.843Z,11.90
2018-10-16T03:12:38.897Z,11.90
2018-10-16T03:15:08.947Z,11.90
2018-10-16T03:17:37.095Z,11.90
2018-10-16T03:20:05.397Z,11.80
2018-10-16T03:22:33.435Z,11.80
2018-10-16T03:25:13.011Z,11.80
2018-10-16T03:27:41.399Z,11.80
2018-10-16T03:30:10.562Z,11.70
2018-10-16T03:32:39.354Z,11.70
2018-10-16T03:35:07.955Z,11.70
2018-10-16T03:37:36.207Z,11.70
2018-10-16T03:40:04.276Z,11.70
2018-10-16T03:42:32.287Z,11.70
2018-10-16T03:45:00.315Z,11.70
2018-10-16T03:47:28.518Z,11.70
2018-10-16T03:49:56.635Z,11.70
2018-10-16T03:52:24.922Z,11.80
2018-10-16T03:54:53.135Z,11.70
2018-10-16T03:57:21.233Z,11.60
2018-10-16T03:59:49.219Z,11.60
2018-10-16T04:02:17.262Z,11.60
2018-10-16T04:04:45.412Z,11.60
2018-10-16T04:07:13.450Z,11.60
2018-10-16T04:09:41.628Z,11.60
2018-10-16T04:12:09.786Z,11.60
2018-10-16T04:14:37.814Z,11.60
2018-10-16T04:17:06.299Z,11.60
2018-10-16T04:19:34.413Z,11.60
2018-10-16T04:22:02.459Z,11.60
2018-10-16T04:24:30.504Z,11.50
2018-10-16T04:26:58.535Z,11.50
2018-10-16T04:29:26.814Z,11.50
2018-10-16T04:31:55.022Z,11.50
2018-10-16T04:34:23.261Z,11.60
2018-10-16T04:36:51.263Z,11.60
2018-10-16T04:39:19.322Z,11.50
2018-10-16T04:41:47.445Z,11.50
2018-10-16T04:44:15.392Z,11.50
2018-10-16T04:46:43.442Z,11.50
2018-10-16T04:49:11.537Z,11.50
2018-10-16T04:51:39.784Z,11.50
2018-10-16T04:54:08.266Z,11.50
2018-10-16T04:56:36.559Z,11.40
2018-10-16T04:59:04.694Z,11.40
2018-10-16T05:01:32.896Z,11.40
2018-10-16T05:04:01.000Z,11.50
2018-10-16T05:06:29.552Z,11.50
2018-10-16T05:08:57.722Z,11.50
2018-10-16T05:11:25.775Z,11.50
2018-10-16T05:13:53.790Z,11.50
2018-10-16T05:16:21.856Z,11.50
2018-10-16T05:18:50.107Z,11.50
2018-10-16T05:21:18.103Z,11.50
2018-10-16T05:23:46.553Z,11.50
2018-10-16T05:26:14.625Z,11.50
2018-10-16T05:28:42.639Z,11.50
2018-10-16T05:31:10.784Z,11.50
2018-10-16T05:33:38.970Z,11.40
2018-10-16T05:36:07.330Z,11.40
2018-10-16T05:38:35.439Z,11.30
2018-10-16T05:41:03.503Z,11.40
2018-10-16T05:43:31.635Z,11.40
2018-10-16T05:45:59.960Z,11.50
2018-10-16T05:48:28.047Z,11.50
2018-10-16T05:50:57.184Z,11.60
2018-10-16T05:53:25.246Z,11.60
2018-10-16T05:55:59.067Z,11.70
2018-10-16T05:58:27.199Z,11.80
2018-10-16T06:00:55.342Z,11.80
2018-10-16T06:03:23.440Z,12.00
2018-10-16T06:05:51.560Z,12.10
2018-10-16T06:08:19.818Z,12.20
2018-10-16T06:10:47.917Z,12.30
2018-10-16T06:13:15.904Z,12.40
2018-10-16T06:15:43.968Z,12.50
2018-10-16T06:18:12.531Z,12.70
2018-10-16T06:20:40.560Z,13.10
2018-10-16T06:23:08.579Z,13.70
2018-10-16T06:25:36.732Z,14.30
2018-10-16T06:28:15.089Z,14.90
2018-10-16T06:30:43.307Z,15.50
2018-10-16T06:33:11.619Z,16.10
2018-10-16T06:35:39.765Z,16.50
2018-10-16T06:38:08.064Z,16.80
2018-10-16T06:40:36.256Z,17.40
2018-10-16T06:43:04.610Z,17.80
2018-10-16T06:45:32.891Z,18.30
2018-10-16T06:48:00.959Z,18.60
2018-10-16T06:50:29.053Z,19.00
2018-10-16T06:52:57.543Z,19.50
2018-10-16T06:55:25.667Z,19.90
2018-10-16T06:57:53.867Z,20.30
2018-10-16T07:00:21.966Z,20.70
2018-10-16T07:02:49.974Z,21.00
2018-10-16T07:05:18.123Z,21.30
2018-10-16T07:07:46.339Z,21.70
2018-10-16T07:10:15.415Z,21.90
2018-10-16T07:12:43.429Z,22.10
2018-10-16T07:15:11.458Z,22.20
2018-10-16T07:17:39.470Z,22.70
2018-10-16T07:20:08.079Z,22.80
2018-10-16T07:22:36.199Z,23.00
2018-10-16T07:25:04.991Z,23.20
2018-10-16T07:27:33.053Z,23.50
2018-10-16T07:30:01.201Z,23.70
2018-10-16T07:32:29.135Z,24.20
2018-10-16T07:34:58.159Z,24.80
2018-10-16T07:37:26.686Z,24.80
2018-10-16T07:39:54.937Z,24.90
2018-10-16T07:42:23.056Z,24.80
2018-10-16T07:44:51.675Z,24.90
2018-10-16T07:47:19.744Z,25.20
2018-10-16T07:49:47.852Z,25.40
2018-10-16T07:52:16.330Z,25.50
2018-10-16T07:54:44.498Z,25.60
2018-10-16T07:57:12.797Z,25.90
2018-10-16T07:59:40.798Z,26.10
2018-10-16T08:02:09.149Z,26.70
2018-10-16T08:04:37.259Z,26.90
2018-10-16T08:07:05.457Z,26.80
2018-10-16T08:09:33.537Z,26.90
2018-10-16T08:12:01.780Z,27.20
2018-10-16T08:14:29.995Z,27.50
2018-10-16T08:16:58.054Z,27.80
2018-10-16T08:19:26.144Z,28.10
2018-10-16T08:21:54.183Z,28.20
2018-10-16T08:24:22.278Z,28.50
2018-10-16T08:26:50.485Z,28.30
2018-10-16T08:29:18.823Z,28.30
2018-10-16T08:31:46.851Z,28.00
2018-10-16T08:34:14.982Z,28.10
2018-10-16T08:36:43.121Z,27.80
2018-10-16T08:39:13.912Z,27.60
2018-10-16T08:43:58.019Z,27.30
2018-10-16T08:46:37.376Z,27.60
2018-10-16T08:49:16.939Z,27.40
2018-10-16T08:51:47.742Z,26.90
2018-10-16T08:54:16.102Z,26.60
2018-10-16T08:56:44.203Z,25.80
2018-10-16T08:59:12.287Z,26.20
2018-10-16T09:01:40.410Z,26.60
2018-10-16T09:04:08.452Z,27.10
2018-10-16T09:06:36.658Z,27.50
2018-10-16T09:09:09.950Z,26.80
2018-10-16T09:11:38.164Z,25.90
2018-10-16T09:14:06.700Z,26.00
2018-10-16T09:16:34.659Z,26.70
2018-10-16T09:19:02.683Z,27.40
2018-10-16T09:21:30.736Z,28.00
2018-10-16T09:23:59.178Z,28.50
2018-10-16T09:26:27.202Z,29.00
2018-10-16T09:28:55.275Z,29.10
2018-10-16T09:31:23.419Z,29.30
2018-10-16T09:33:51.439Z,29.30
2018-10-16T09:36:19.507Z,28.70
2018-10-16T09:38:47.522Z,28.50
2018-10-16T09:41:15.608Z,28.80
2018-10-16T09:43:43.923Z,29.10
2018-10-16T09:46:11.954Z,29.10
2018-10-16T09:48:40.013Z,29.20
2018-10-16T09:51:08.327Z,29.50
2018-10-16T09:53:36.346Z,29.10
2018-10-16T09:56:04.798Z,28.60
2018-10-16T09:58:32.842Z,28.70
2018-10-16T10:01:06.268Z,29.10
2018-10-16T10:03:34.345Z,29.10
2018-10-16T10:06:02.485Z,28.70
2018-10-16T10:08:30.515Z,28.80
2018-10-16T10:10:59.131Z,28.80
2018-10-16T10:13:27.150Z,28.90
2018-10-16T10:15:55.222Z,28.80
2018-10-16T10:18:23.471Z,28.90
2018-10-16T10:20:51.729Z,28.80
2018-10-16T10:23:19.862Z,28.30
2018-10-16T10:25:47.888Z,27.60
2018-10-16T10:28:15.908Z,26.80
2018-10-16T10:30:43.943Z,26.20
2018-10-16T10:33:12.126Z,25.70
2018-10-16T10:35:40.385Z,25.30
2018-10-16T10:38:08.453Z,24.90
2018-10-16T10:40:36.859Z,24.50
2018-10-16T10:43:05.753Z,24.20
2018-10-16T10:45:33.971Z,23.80
2018-10-16T10:48:02.072Z,23.40
2018-10-16T10:50:30.233Z,22.90
2018-10-16T10:52:58.178Z,22.50
2018-10-16T10:55:26.488Z,22.40
2018-10-16T10:57:54.562Z,22.40
2018-10-16T11:00:22.606Z,22.20
2018-10-16T11:02:50.635Z,22.00
2018-10-16T11:05:18.654Z,21.90
2018-10-16T11:07:46.657Z,21.70
2018-10-16T11:10:15.058Z,21.50
2018-10-16T11:12:43.994Z,21.50
2018-10-16T11:15:12.226Z,21.30
2018-10-16T11:17:40.990Z,21.00
2018-10-16T11:20:11.191Z,21.10
2018-10-16T11:22:39.234Z,20.90
2018-10-16T11:25:08.251Z,20.90
2018-10-16T11:27:36.414Z,20.90
2018-10-16T11:30:06.714Z,20.70
2018-10-16T11:32:34.685Z,20.80
2018-10-16T11:35:02.855Z,21.00
2018-10-16T11:37:31.103Z,21.20
2018-10-16T11:39:59.124Z,21.20
2018-10-16T11:42:27.195Z,21.30
2018-10-16T11:44:55.554Z,21.30
2018-10-16T11:47:23.747Z,21.30
2018-10-16T11:49:51.931Z,21.40
2018-10-16T11:52:19.968Z,21.60
2018-10-16T11:54:47.958Z,21.90
2018-10-16T11:57:15.982Z,22.10
2018-10-16T11:59:44.510Z,22.20
2018-10-16T12:02:12.651Z,22.20
2018-10-16T12:04:40.671Z,22.30
2018-10-16T12:07:08.852Z,22.40
2018-10-16T12:09:36.795Z,22.60
2018-10-16T12:12:05.079Z,22.80
2018-10-16T12:14:33.275Z,22.90
2018-10-16T12:17:13.995Z,22.70
2018-10-16T12:19:47.136Z,22.40
2018-10-16T12:22:15.174Z,22.00
2018-10-16T12:24:43.446Z,21.90
2018-10-16T12:27:11.781Z,22.00
2018-10-16T12:29:39.800Z,22.00
2018-10-16T12:32:07.990Z,22.00
2018-10-16T12:34:36.150Z,21.90
2018-10-16T12:37:04.242Z,21.60
2018-10-16T12:39:32.304Z,21.50
2018-10-16T12:42:00.411Z,21.40
2018-10-16T12:44:28.387Z,21.40
2018-10-16T12:46:56.543Z,21.40
2018-10-16T12:49:25.199Z,21.40
2018-10-16T12:51:53.273Z,21.50
2018-10-16T12:54:21.340Z,21.50
2018-10-16T12:56:49.525Z,21.60
2018-10-16T12:59:17.475Z,21.60
2018-10-16T13:01:45.515Z,21.60
2018-10-16T13:04:13.661Z,21.60
2018-10-16T13:06:41.996Z,21.60
2018-10-16T13:09:11.436Z,21.60
2018-10-16T13:11:40.494Z,21.50
2018-10-16T13:14:08.718Z,21.40
2018-10-16T13:16:37.371Z,21.40
2018-10-16T13:19:05.770Z,21.40
2018-10-16T13:21:34.246Z,21.50
2018-10-16T13:24:02.546Z,21.50
2018-10-16T13:26:30.561Z,21.50
2018-10-16T13:28:58.689Z,21.50
2018-10-16T13:31:26.894Z,21.50
2018-10-16T13:33:54.994Z,21.50
2018-10-16T13:36:23.042Z,21.50
2018-10-16T13:38:51.326Z,21.40
2018-10-16T13:41:19.415Z,21.40
2018-10-16T13:43:48.008Z,21.20
2018-10-16T13:46:16.089Z,21.20
2018-10-16T13:48:44.224Z,21.00
2018-10-16T13:51:12.547Z,21.00
2018-10-16T13:53:40.920Z,20.90
2018-10-16T13:56:09.425Z,20.90
2018-10-16T13:58:37.428Z,20.80
2018-10-16T14:01:05.599Z,20.80
2018-10-16T14:03:33.622Z,20.80
2018-10-16T14:06:01.674Z,20.70
2018-10-16T14:08:29.715Z,20.70
2018-10-16T14:10:57.736Z,20.60
2018-10-16T14:13:25.960Z,20.60
2018-10-16T14:15:54.093Z,20.60
2018-10-16T14:18:22.108Z,20.60
2018-10-16T14:20:50.122Z,20.60
2018-10-16T14:23:18.243Z,20.60
2018-10-16T14:25:47.236Z,20.50
2018-10-16T14:28:15.417Z,20.50
2018-10-16T14:30:43.479Z,20.50
2018-10-16T14:33:11.920Z,20.40
2018-10-16T14:35:40.278Z,20.40
2018-10-16T14:38:08.338Z,20.40
2018-10-16T14:40:36.430Z,20.40
2018-10-16T14:43:04.671Z,20.30
2018-10-16T14:45:32.846Z,20.30
2018-10-16T14:48:00.977Z,20.30
2018-10-16T14:50:28.966Z,20.20
2018-10-16T14:52:57.759Z,20.20
2018-10-16T14:55:25.855Z,20.20
2018-10-16T14:57:53.855Z,20.10
2018-10-16T15:00:22.026Z,20.00
2018-10-16T15:02:50.063Z,20.00
2018-10-16T15:05:18.196Z,20.00
2018-10-16T15:07:46.399Z,20.00
2018-10-16T15:10:14.728Z,19.90
2018-10-16T15:12:42.717Z,19.80
2018-10-16T15:15:10.794Z,19.80
2018-10-16T15:17:38.819Z,19.70
2018-10-16T15:20:08.646Z,19.80
2018-10-16T15:22:36.858Z,19.70
2018-10-16T15:25:06.418Z,19.70
2018-10-16T15:27:34.438Z,19.70
2018-10-16T15:30:02.533Z,19.70
2018-10-16T15:32:30.563Z,19.60
2018-10-16T15:34:59.079Z,19.60
2018-10-16T15:37:27.112Z,19.50
2018-10-16T15:39:55.147Z,19.50
2018-10-16T15:42:23.606Z,19.40
2018-10-16T15:44:51.638Z,19.40
2018-10-16T15:47:19.786Z,19.30
2018-10-16T15:49:47.887Z,19.30
2018-10-16T15:52:16.009Z,19.20
2018-10-16T15:54:44.313Z,19.20
2018-10-16T15:57:12.403Z,19.10
2018-10-16T15:59:40.412Z,19.00
2018-10-16T16:02:08.514Z,18.90
2018-10-16T16:04:36.555Z,18.80
2018-10-16T16:07:04.584Z,18.70
2018-10-16T16:09:32.689Z,18.60
2018-10-16T16:12:01.205Z,18.50
2018-10-16T16:14:29.405Z,18.40
2018-10-16T16:16:58.008Z,18.30
2018-10-16T16:19:26.490Z,18.20
2018-10-16T16:21:55.469Z,18.10
2018-10-16T16:24:23.619Z,18.00
2018-10-16T16:26:51.703Z,17.90
2018-10-16T16:29:19.808Z,17.80
2018-10-16T16:31:47.886Z,17.70
2018-10-16T16:34:15.967Z,17.70
2018-10-16T16:36:44.208Z,17.60
2018-10-16T16:39:13.774Z,17.50
2018-10-16T16:41:42.228Z,17.40
2018-10-16T16:44:10.437Z,17.40
2018-10-16T16:46:38.868Z,17.40
2018-10-16T16:49:07.480Z,17.30
2018-10-16T16:51:35.525Z,17.30
2018-10-16T16:54:03.615Z,17.20
2018-10-16T16:56:34.709Z,17.20
2018-10-16T16:59:06.550Z,17.20
2018-10-16T17:01:34.619Z,17.10
2018-10-16T17:04:02.675Z,17.10
2018-10-16T17:06:30.712Z,17.00
2018-10-16T17:08:59.083Z,16.90
2018-10-16T17:11:27.096Z,16.90
2018-10-16T17:13:55.170Z,16.90
2018-10-16T17:16:23.194Z,16.80
2018-10-16T17:18:51.211Z,16.80
2018-10-16T17:21:19.335Z,16.80
2018-10-16T17:23:47.443Z,16.70
2018-10-16T17:26:15.849Z,16.60
2018-10-16T17:28:43.629Z,16.60
2018-10-16T17:31:11.828Z,16.50
2018-10-16T17:33:40.571Z,16.50
2018-10-16T17:36:08.624Z,16.40
2018-10-16T17:38:36.876Z,16.40
2018-10-16T17:41:05.166Z,16.30
2018-10-16T17:43:33.175Z,16.30
2018-10-16T17:46:01.567Z,16.30
2018-10-16T17:48:29.667Z,16.20
2018-10-16T17:50:57.750Z,16.20
2018-10-16T17:53:25.927Z,16.20
2018-10-16T17:55:53.950Z,16.10
2018-10-16T17:58:22.315Z,16.10
2018-10-16T18:00:50.524Z,16.00
2018-10-16T18:03:18.709Z,16.00
2018-10-16T18:05:47.224Z,16.00
2018-10-16T18:08:15.447Z,15.90
2018-10-16T18:10:43.572Z,15.90
2018-10-16T18:13:11.599Z,15.80
2018-10-16T18:15:40.636Z,15.80
2018-10-16T18:18:08.768Z,15.80
2018-10-16T18:20:36.881Z,15.70
2018-10-16T18:23:05.463Z,15.70
2018-10-16T18:25:33.512Z,15.70
2018-10-16T18:28:01.610Z,15.60
2018-10-16T18:30:30.045Z,15.60
2018-10-16T18:32:58.141Z,15.50
2018-10-16T18:35:26.267Z,15.50
2018-10-16T18:37:54.378Z,15.50
2018-10-16T18:40:22.679Z,15.50
2018-10-16T18:42:50.786Z,15.40
2018-10-16T18:45:19.417Z,15.40
2018-10-16T18:47:47.543Z,15.30
2018-10-16T18:50:15.846Z,15.30
2018-10-16T18:52:44.697Z,15.30
2018-10-16T18:55:13.743Z,15.30
2018-10-16T18:57:42.683Z,15.30
2018-10-16T19:00:15.477Z,15.30
2018-10-16T19:02:44.042Z,15.30
2018-10-16T19:05:12.051Z,15.30
2018-10-16T19:07:40.949Z,15.30
2018-10-16T19:10:09.043Z,15.20
2018-10-16T19:12:38.764Z,15.20
2018-10-16T19:15:07.447Z,15.20
2018-10-16T19:17:35.535Z,15.20
2018-10-16T19:20:03.723Z,15.20
2018-10-16T19:22:31.921Z,15.20
2018-10-16T19:25:00.069Z,15.10
2018-10-16T19:27:28.230Z,15.10
2018-10-16T19:29:56.508Z,15.00
2018-10-16T19:32:24.803Z,15.00
2018-10-16T19:34:53.123Z,15.00
2018-10-16T19:37:21.283Z,15.00
2018-10-16T19:39:49.340Z,14.90
2018-10-16T19:42:17.470Z,14.90
2018-10-16T19:44:45.564Z,14.90
2018-10-16T19:47:13.835Z,14.90
2018-10-16T19:49:41.880Z,14.90
2018-10-16T19:52:10.117Z,14.80
2018-10-16T19:54:38.344Z,14.80
2018-10-16T19:57:06.428Z,14.80
2018-10-16T19:59:35.605Z,14.70
2018-10-16T20:02:04.563Z,14.70
2018-10-16T20:04:32.620Z,14.60
2018-10-16T20:07:01.265Z,14.60
2018-10-16T20:09:29.493Z,14.60
2018-10-16T20:11:57.603Z,14.60
2018-10-16T20:14:25.741Z,14.60
2018-10-16T20:16:55.140Z,14.60
2018-10-16T20:19:23.782Z,14.60
2018-10-16T20:21:52.019Z,14.60
2018-10-16T20:24:20.772Z,14.60
2018-10-16T20:26:49.384Z,14.60
2018-10-16T20:29:17.815Z,14.60
2018-10-16T20:31:45.957Z,14.60
2018-10-16T20:34:14.263Z,14.50
2018-10-16T20:36:42.373Z,14.50
2018-10-16T20:39:13.006Z,14.50
2018-10-16T20:41:41.534Z,14.40
2018-10-16T20:44:09.855Z,14.40
2018-10-16T20:46:38.466Z,14.30
2018-10-16T20:49:06.904Z,14.30
2018-10-16T20:51:35.984Z,14.20
2018-10-16T20:54:04.209Z,14.20
2018-10-16T20:56:32.899Z,14.10
2018-10-16T20:59:00.988Z,14.10
2018-10-16T21:01:29.097Z,14.00
2018-10-16T21:03:57.495Z,14.00
2018-10-16T21:06:25.713Z,14.00
2018-10-16T21:08:53.690Z,13.90
2018-10-16T21:11:21.924Z,13.90
2018-10-16T21:13:50.398Z,13.90
2018-10-16T21:16:18.751Z,13.90
2018-10-16T21:18:46.812Z,13.90
2018-10-16T21:21:14.894Z,13.90
2018-10-16T21:23:42.976Z,13.90
2018-10-16T21:26:11.310Z,13.90
2018-10-16T21:28:39.366Z,13.80
2018-10-16T21:31:07.466Z,13.80
2018-10-16T21:33:35.786Z,13.80
2018-10-16T21:36:03.833Z,13.70
2018-10-16T21:38:31.877Z,13.70
2018-10-16T21:41:00.051Z,13.70
2018-10-16T21:43:28.044Z,13.70
2018-10-16T21:45:56.063Z,13.60
2018-10-16T21:48:24.214Z,13.60
2018-10-16T21:50:52.222Z,13.60
2018-10-16T21:53:20.352Z,13.50
2018-10-16T21:55:48.615Z,13.50
2018-10-16T21:58:16.665Z,13.50
2018-10-16T22:00:50.523Z,13.50
2018-10-16T22:03:18.547Z,13.50
2018-10-16T22:05:46.878Z,13.50
2018-10-16T22:08:14.964Z,13.40
2018-10-16T22:10:42.992Z,13.40
2018-10-16T22:13:11.767Z,13.40
2018-10-16T22:15:39.961Z,13.40
2018-10-16T22:18:08.115Z,13.40
2018-10-16T22:20:36.220Z,13.40
2018-10-16T22:23:05.187Z,13.40
2018-10-16T22:25:33.151Z,13.30
2018-10-16T22:28:01.194Z,13.30
2018-10-16T22:30:29.406Z,13.30
2018-10-16T22:32:57.445Z,13.20
2018-10-16T22:35:25.471Z,13.20
2018-10-16T22:37:53.560Z,13.20
2018-10-16T22:40:21.698Z,13.20
2018-10-16T22:42:49.722Z,13.10
2018-10-16T22:45:18.030Z,13.10
2018-10-16T22:47:46.087Z,13.10
2018-10-16T22:50:14.134Z,13.00
2018-10-16T22:52:42.211Z,13.00
2018-10-16T22:55:10.696Z,12.90
2018-10-16T22:57:39.009Z,12.90
2018-10-16T23:00:13.879Z,12.90
2018-10-16T23:02:42.315Z,12.90
2018-10-16T23:05:10.407Z,12.80
2018-10-16T23:07:38.675Z,12.80
2018-10-16T23:10:06.834Z,12.80
2018-10-16T23:12:34.907Z,12.80
2018-10-16T23:15:03.033Z,12.80
2018-10-16T23:17:31.162Z,12.80
2018-10-16T23:19:59.610Z,12.80
2018-10-16T23:22:27.739Z,12.70
2018-10-16T23:24:56.018Z,12.70
2018-10-16T23:27:24.131Z,12.60
2018-10-16T23:29:52.339Z,12.60
2018-10-16T23:32:20.398Z,12.60
2018-10-16T23:34:48.579Z,12.60
2018-10-16T23:37:16.797Z,12.50
2018-10-16T23:39:44.702Z,12.50
2018-10-16T23:42:12.728Z,12.50
2018-10-16T23:44:40.824Z,12.50
2018-10-16T23:47:09.055Z,12.40
2018-10-16T23:49:37.122Z,12.40
2018-10-16T23:52:05.331Z,12.30
2018-10-16T23:54:33.391Z,12.30
2018-10-16T23:57:01.404Z,12.30
2018-10-16T23:59:29.626Z,12.30
